Time;durP1;ratioP1;P1;durP2;ratioP2;P2;SDS_P1;SDS_P2;PMS_P1;PMS_P2;Temp;Humidity;BMP_temperature;BMP_pressure;BME280_temperature;BME280_humidity;BME280_pressure;Samples;Min_cycle;Max_cycle;Signal;HPM_P1;HPM_P2
2022/06/06 00:02:24;;;;;;;42.00;32.23;;;15.90;99.90;;;;;;5038571;28;20838;-64
2022/06/06 00:04:51;;;;;;;42.27;32.07;;;15.70;99.90;;;;;;5027404;28;20519;-65
2022/06/06 00:07:19;;;;;;;39.13;31.67;;;15.70;99.90;;;;;;5027757;28;20463;-68
2022/06/06 00:09:46;;;;;;;42.60;32.00;;;15.60;99.90;;;;;;5022550;28;20919;-67
2022/06/06 00:12:23;;;;;;;44.17;32.63;;;15.60;99.90;;;;;;5032963;28;20467;-68
2022/06/06 00:14:50;;;;;;;43.27;32.70;;;15.50;1.00;;;;;;5034061;28;20438;-67
2022/06/06 00:17:17;;;;;;;41.03;31.83;;;15.50;1.00;;;;;;5038886;28;20908;-67
2022/06/06 00:19:44;;;;;;;41.93;33.90;;;15.50;1.00;;;;;;5034669;28;20528;-68
2022/06/06 00:22:13;;;;;;;42.30;32.70;;;15.50;1.00;;;;;;5038106;28;20521;-64
2022/06/06 00:24:40;;;;;;;43.63;32.77;;;15.40;1.00;;;;;;5024082;28;20809;-66
2022/06/06 00:27:07;;;;;;;43.83;33.60;;;15.40;1.00;;;;;;5018073;28;20472;-67
2022/06/06 00:29:39;;;;;;;41.90;31.87;;;15.40;1.00;;;;;;5031446;28;20459;-65
2022/06/06 00:34:55;;;;;;;40.73;30.97;;;15.40;1.00;;;;;;5038103;28;20863;-70
2022/06/06 00:37:26;;;;;;;39.53;31.60;;;15.40;1.00;;;;;;5032169;28;20491;-71
2022/06/06 00:39:53;;;;;;;44.13;32.80;;;15.40;1.00;;;;;;5033368;28;20898;-69
2022/06/06 00:42:24;;;;;;;35.17;27.90;;;15.40;1.00;;;;;;5038112;28;20459;-69
2022/06/06 00:45:28;;;;;;;39.63;31.00;;;15.40;1.00;;;;;;5029485;28;20893;-69
2022/06/06 00:48:03;;;;;;;43.07;31.33;;;15.40;1.00;;;;;;5017729;28;20958;-69
2022/06/06 00:50:36;;;;;;;41.63;30.93;;;15.40;1.00;;;;;;5003889;28;20954;-70
2022/06/06 00:53:04;;;;;;;41.20;32.10;;;15.40;48.90;;;;;;5023838;28;20467;-67
2022/06/06 00:55:35;;;;;;;41.60;31.93;;;15.40;99.90;;;;;;5038223;28;20466;-65
2022/06/06 00:58:07;;;;;;;38.73;30.53;;;15.30;99.90;;;;;;5031837;28;20521;-66
2022/06/06 01:00:47;;;;;;;40.47;30.90;;;15.30;99.90;;;;;;5034755;28;20540;-68
2022/06/06 01:03:18;;;;;;;36.63;28.90;;;15.40;1.00;;;;;;5018478;28;20888;-69
2022/06/06 01:05:48;;;;;;;36.37;28.47;;;15.30;99.90;;;;;;5026620;28;20775;-67
2022/06/06 01:08:20;;;;;;;40.63;29.10;;;15.30;99.90;;;;;;5021589;28;20925;-68
2022/06/06 01:10:47;;;;;;;40.63;30.17;;;15.30;99.90;;;;;;5017046;28;20553;-69
2022/06/06 01:13:15;;;;;;;37.90;27.90;;;15.30;99.90;;;;;;5004490;28;20459;-67
2022/06/06 01:15:54;;;;;;;36.33;29.27;;;15.30;99.90;;;;;;5036933;28;20463;-66
2022/06/06 01:18:31;;;;;;;40.27;30.40;;;15.30;99.90;;;;;;5026615;28;20475;-64
2022/06/06 01:21:27;;;;;;;38.47;28.50;;;15.30;99.90;;;;;;5017175;28;20467;-69
2022/06/06 01:24:16;;;;;;;37.30;27.70;;;15.30;99.90;;;;;;5019272;28;20475;-70
2022/06/06 01:27:02;;;;;;;37.00;28.30;;;15.30;99.90;;;;;;5037485;28;20550;-69
2022/06/06 01:29:36;;;;;;;37.10;27.07;;;15.30;99.90;;;;;;5032687;28;20466;-69
2022/06/06 01:32:08;;;;;;;34.93;26.03;;;15.30;99.90;;;;;;5019241;28;20890;-69
2022/06/06 01:34:39;;;;;;;36.80;28.47;;;15.30;1.00;;;;;;5019268;28;20941;-66
2022/06/06 01:37:29;;;;;;;34.50;27.90;;;15.30;1.00;;;;;;5037549;28;20467;-68
2022/06/06 01:40:00;;;;;;;38.80;29.20;;;15.20;1.00;;;;;;5026718;28;20474;-67
2022/06/06 01:42:34;;;;;;;37.40;29.63;;;15.20;99.90;;;;;;5015607;28;20474;-66
2022/06/06 01:45:11;;;;;;;38.03;27.77;;;15.20;1.00;;;;;;5035712;28;20459;-66
2022/06/06 01:47:47;;;;;;;40.47;28.83;;;15.20;99.90;;;;;;5029525;28;20470;-65
2022/06/06 01:50:14;;;;;;;42.27;31.00;;;15.10;99.90;;;;;;5015137;28;20562;-67
2022/06/06 01:52:54;;;;;;;41.07;29.43;;;15.10;99.90;;;;;;5016788;28;20901;-66
2022/06/06 01:55:21;;;;;;;41.17;30.17;;;15.10;99.90;;;;;;5019921;28;20486;-67
2022/06/06 01:57:51;;;;;;;43.93;31.83;;;15.10;99.90;;;;;;5036569;28;20463;-65
2022/06/06 02:00:21;;;;;;;39.80;30.90;;;15.10;99.90;;;;;;5030620;28;20545;-67
2022/06/06 02:02:50;;;;;;;43.10;29.87;;;15.10;99.90;;;;;;5037090;28;20888;-65
2022/06/06 02:05:17;;;;;;;44.53;32.20;;;15.10;99.90;;;;;;5034557;28;20532;-62
2022/06/06 02:07:49;;;;;;;43.80;31.17;;;15.10;99.90;;;;;;5036518;28;21240;-64
2022/06/06 02:10:21;;;;;;;39.97;30.50;;;15.10;99.90;;;;;;5026798;28;20467;-65
2022/06/06 02:12:48;;;;;;;41.57;32.47;;;15.10;99.90;;;;;;5024865;28;20437;-65
2022/06/06 02:15:22;;;;;;;37.63;28.40;;;15.10;99.90;;;;;;5022354;28;20464;-66
2022/06/06 02:17:55;;;;;;;40.00;32.27;;;15.10;99.90;;;;;;5030160;28;20550;-66
2022/06/06 02:20:24;;;;;;;42.43;30.37;;;15.10;99.90;;;;;;5030012;28;20906;-65
2022/06/06 02:22:51;;;;;;;36.63;29.20;;;15.20;99.90;;;;;;5016700;28;20468;-65
2022/06/06 02:25:19;;;;;;;41.23;27.47;;;15.10;99.90;;;;;;5021232;28;20517;-65
2022/06/06 02:27:46;;;;;;;36.80;29.80;;;15.10;99.90;;;;;;5036975;28;20463;-65
2022/06/06 02:30:15;;;;;;;35.37;27.77;;;15.10;99.90;;;;;;5036735;28;20462;-66
2022/06/06 02:32:43;;;;;;;38.90;27.60;;;15.20;99.90;;;;;;4997291;28;20882;-67
2022/06/06 02:35:17;;;;;;;38.67;29.67;;;15.20;99.90;;;;;;5016536;28;20975;-66
2022/06/06 02:37:46;;;;;;;38.30;29.27;;;15.20;99.90;;;;;;5018942;28;20491;-65
2022/06/06 02:40:16;;;;;;;41.57;28.40;;;15.20;99.90;;;;;;5036538;28;20908;-66
2022/06/06 02:42:43;;;;;;;33.90;25.90;;;15.20;99.90;;;;;;5031116;28;20491;-66
2022/06/06 02:45:12;;;;;;;32.87;26.20;;;15.20;99.90;;;;;;5038694;28;20812;-66
2022/06/06 02:47:40;;;;;;;33.77;25.77;;;15.20;99.90;;;;;;5036271;28;20774;-66
2022/06/06 02:50:09;;;;;;;34.57;25.10;;;15.10;99.90;;;;;;5039786;28;20463;-65
2022/06/06 02:52:38;;;;;;;31.30;24.70;;;15.10;99.90;;;;;;5026841;28;21007;-65
2022/06/06 02:55:08;;;;;;;31.20;24.03;;;15.10;99.90;;;;;;5026752;28;20462;-65
2022/06/06 02:57:38;;;;;;;29.93;23.77;;;15.20;37.90;;;;;;5021870;28;20468;-64
2022/06/06 03:00:09;;;;;;;30.00;23.40;;;15.20;1.00;;;;;;5032801;28;20504;-66
2022/06/06 03:02:36;;;;;;;27.87;20.90;;;15.20;99.90;;;;;;5040344;28;20850;-64
2022/06/06 03:05:04;;;;;;;26.90;20.53;;;15.20;99.90;;;;;;5039969;28;20900;-65
2022/06/06 03:07:39;;;;;;;30.77;21.10;;;15.30;1.00;;;;;;5030244;28;20562;-64
2022/06/06 03:10:19;;;;;;;23.57;19.37;;;15.20;99.90;;;;;;5039660;28;20468;-65
2022/06/06 03:13:07;;;;;;;26.50;19.53;;;15.20;99.90;;;;;;5027043;28;20516;-64
2022/06/06 03:22:03;;;;;;;24.93;18.53;;;15.20;1.00;;;;;;5009887;28;20912;-65
2022/06/06 03:24:44;;;;;;;25.13;20.10;;;15.10;1.00;;;;;;5026889;28;20462;-66
2022/06/06 03:27:23;;;;;;;24.60;20.73;;;15.20;99.90;;;;;;5035862;28;20794;-65
2022/06/06 03:30:02;;;;;;;23.57;18.00;;;15.20;1.00;;;;;;5035839;28;20463;-64
2022/06/06 03:32:42;;;;;;;21.70;17.43;;;15.10;99.90;;;;;;5027331;28;20495;-65
2022/06/06 03:35:18;;;;;;;22.43;17.10;;;15.10;99.90;;;;;;5020201;28;20464;-64
2022/06/06 03:37:54;;;;;;;24.77;17.80;;;15.10;99.90;;;;;;5025963;28;20525;-64
2022/06/06 03:40:31;;;;;;;21.00;17.53;;;15.10;46.80;;;;;;5019403;28;20923;-65
2022/06/06 03:43:07;;;;;;;21.93;17.47;;;15.20;1.00;;;;;;5026755;28;20461;-60
2022/06/06 03:45:40;;;;;;;20.70;15.43;;;15.10;1.00;;;;;;5025405;28;20829;-63
2022/06/06 03:48:26;;;;;;;20.63;15.70;;;15.10;99.90;;;;;;5034860;28;20807;-62
2022/06/06 03:51:03;;;;;;;18.57;16.67;;;15.10;99.90;;;;;;5033772;28;20521;-64
2022/06/06 03:53:39;;;;;;;21.63;15.80;;;15.10;99.90;;;;;;5026553;28;20499;-64
2022/06/06 03:56:25;;;;;;;17.83;15.57;;;15.10;61.50;;;;;;5038813;28;20462;-64
2022/06/06 03:58:54;;;;;;;18.60;15.17;;;15.10;99.90;;;;;;5031775;28;20527;-64
2022/06/06 04:01:24;;;;;;;17.20;14.80;;;15.10;99.90;;;;;;5019306;28;20943;-64
2022/06/06 04:03:54;;;;;;;21.13;16.00;;;15.10;99.90;;;;;;5024923;28;20771;-64
2022/06/06 04:06:21;;;;;;;18.30;15.00;;;15.10;99.90;;;;;;5021827;28;20456;-63
2022/06/06 04:08:51;;;;;;;17.37;14.30;;;15.10;99.90;;;;;;5036685;28;20837;-64
2022/06/06 04:11:39;;;;;;;19.83;14.33;;;15.10;40.40;;;;;;5027388;28;20498;-63
2022/06/06 04:14:20;;;;;;;19.00;15.20;;;15.10;99.90;;;;;;5017951;28;20468;-63
2022/06/06 04:16:55;;;;;;;16.83;13.73;;;15.10;1.00;;;;;;5038754;28;20471;-64
2022/06/06 04:19:30;;;;;;;20.30;13.63;;;15.10;19.60;;;;;;5035836;28;20446;-64
2022/06/06 04:22:10;;;;;;;13.73;12.20;;;15.10;1.00;;;;;;5019084;28;20546;-64
2022/06/06 04:24:57;;;;;;;14.03;12.50;;;15.10;99.90;;;;;;5018559;28;20463;-63
2022/06/06 04:27:39;;;;;;;15.83;11.33;;;15.10;99.90;;;;;;5019394;28;20459;-64
2022/06/06 04:30:15;;;;;;;18.13;10.80;;;15.10;99.90;;;;;;5033626;28;20524;-61
2022/06/06 04:32:54;;;;;;;14.80;11.07;;;15.10;98.90;;;;;;5027363;28;20494;-62
2022/06/06 04:35:28;;;;;;;14.23;11.10;;;15.10;94.80;;;;;;5026969;28;20477;-62
2022/06/06 04:38:04;;;;;;;13.03;11.10;;;15.00;50.00;;;;;;5035125;28;20505;-62
2022/06/06 04:40:39;;;;;;;15.10;10.90;;;15.00;44.40;;;;;;5036213;28;20450;-62
2022/06/06 04:43:15;;;;;;;14.50;12.53;;;15.10;36.50;;;;;;5037761;28;20464;-63
2022/06/06 04:45:49;;;;;;;12.30;9.90;;;15.10;15.00;;;;;;5036256;28;20466;-61
2022/06/06 04:48:17;;;;;;;10.90;9.80;;;15.10;1.00;;;;;;5038085;28;20495;-59
2022/06/06 04:50:47;;;;;;;12.23;10.50;;;15.20;1.00;;;;;;5035308;28;20463;-62
2022/06/06 04:53:18;;;;;;;12.80;10.60;;;15.10;1.00;;;;;;5017872;28;20502;-65
2022/06/06 04:55:50;;;;;;;12.30;11.00;;;15.20;1.00;;;;;;5020411;28;20798;-63
2022/06/06 04:58:21;;;;;;;13.43;10.03;;;15.10;1.00;;;;;;5038158;28;20911;-62
2022/06/06 05:00:50;;;;;;;11.63;10.20;;;15.00;1.00;;;;;;5022148;28;20464;-60
2022/06/06 05:03:17;;;;;;;14.27;11.10;;;15.00;1.00;;;;;;5018690;28;20471;-62
2022/06/06 05:05:58;;;;;;;13.57;10.00;;;15.00;1.00;;;;;;5034028;28;20987;-62
2022/06/06 05:08:41;;;;;;;11.90;9.83;;;15.10;1.00;;;;;;5026191;28;20932;-63
2022/06/06 05:11:21;;;;;;;16.87;12.00;;;15.00;1.00;;;;;;5037713;28;20934;-63
2022/06/06 05:14:19;;;;;;;13.50;11.40;;;15.10;1.00;;;;;;5034813;28;20471;-62
2022/06/06 05:17:11;;;;;;;12.90;10.17;;;15.10;1.00;;;;;;5029609;28;20475;-63
2022/06/06 05:20:01;;;;;;;11.17;10.07;;;15.00;1.00;;;;;;5018075;28;20468;-63
2022/06/06 05:22:51;;;;;;;14.63;10.63;;;15.00;1.00;;;;;;5030746;28;20453;-63
2022/06/06 05:25:30;;;;;;;15.70;10.70;;;15.00;1.00;;;;;;5023271;28;20756;-65
2022/06/06 05:28:21;;;;;;;11.70;9.37;;;15.10;1.00;;;;;;5021999;28;20781;-65
2022/06/06 05:30:56;;;;;;;12.50;10.70;;;15.10;1.00;;;;;;5032828;28;20459;-64
2022/06/06 05:33:30;;;;;;;15.43;10.73;;;15.40;1.00;;;;;;5029330;28;20576;-63
2022/06/06 05:36:42;;;;;;;12.67;10.90;;;15.50;1.00;;;;;;5036712;28;20841;-66
2022/06/06 05:39:39;;;;;;;11.13;10.03;;;15.60;1.00;;;;;;5021816;28;20471;-64
2022/06/06 05:42:34;;;;;;;9.30;8.30;;;15.60;1.00;;;;;;5036822;28;20463;-64
2022/06/06 05:45:14;;;;;;;10.27;9.27;;;15.60;1.00;;;;;;5018504;28;20471;-64
2022/06/06 05:47:56;;;;;;;11.80;10.23;;;15.60;1.00;;;;;;5030112;28;20494;-66
2022/06/06 05:50:46;;;;;;;11.80;9.87;;;15.60;1.00;;;;;;5022133;28;20463;-63
2022/06/06 05:53:31;;;;;;;13.10;9.73;;;15.70;1.00;;;;;;5037028;28;20777;-64
2022/06/06 05:56:22;;;;;;;10.50;9.40;;;15.90;1.00;;;;;;5027960;28;20892;-64
2022/06/06 05:59:08;;;;;;;12.63;9.57;;;16.00;1.00;;;;;;5020343;28;20852;-66
2022/06/06 06:01:48;;;;;;;9.67;8.57;;;16.00;1.00;;;;;;5037213;28;20459;-64
2022/06/06 06:04:52;;;;;;;9.13;7.63;;;16.10;1.00;;;;;;5030945;28;20765;-66
2022/06/06 06:07:37;;;;;;;9.70;8.70;;;16.10;1.00;;;;;;5035266;28;20553;-66
2022/06/06 06:10:10;;;;;;;11.70;8.90;;;16.10;1.00;;;;;;5024915;28;20974;-66
2022/06/06 06:13:14;;;;;;;8.83;7.93;;;16.30;1.00;;;;;;5036743;28;20498;-65
2022/06/06 06:15:43;;;;;;;10.90;9.23;;;16.50;1.00;;;;;;5024041;28;20464;-66
2022/06/06 06:18:16;;;;;;;8.70;7.80;;;16.90;99.90;;;;;;5021736;28;20460;-69
2022/06/06 06:20:53;;;;;;;9.10;7.50;;;17.00;99.90;;;;;;5021993;28;20537;-65
2022/06/06 06:23:25;;;;;;;8.70;7.83;;;17.20;99.90;;;;;;5030311;28;20463;-66
2022/06/06 06:25:54;;;;;;;10.40;6.90;;;17.20;99.90;;;;;;5029629;28;20472;-67
2022/06/06 06:28:21;;;;;;;9.20;8.30;;;17.10;99.90;;;;;;5019620;28;20497;-66
2022/06/06 06:31:03;;;;;;;8.40;7.33;;;17.10;99.90;;;;;;5018431;28;20460;-71
2022/06/06 06:33:44;;;;;;;8.60;7.00;;;17.30;99.90;;;;;;5017435;28;20498;-67
2022/06/06 06:36:27;;;;;;;11.33;7.53;;;18.00;99.90;;;;;;5017314;28;20523;-67
2022/06/06 06:39:21;;;;;;;6.83;6.20;;;18.30;99.90;;;;;;5032278;28;20463;-67
2022/06/06 06:42:02;;;;;;;7.00;6.30;;;18.90;99.90;;;;;;5020559;28;20464;-67
2022/06/06 06:44:35;;;;;;;7.30;6.60;;;19.10;99.90;;;;;;5020635;28;20900;-68
2022/06/06 06:47:10;;;;;;;7.47;5.70;;;18.90;99.90;;;;;;5028267;28;20519;-69
2022/06/06 06:49:45;;;;;;;6.03;5.43;;;18.60;99.90;;;;;;5040512;28;20462;-67
2022/06/06 06:52:33;;;;;;;6.80;5.20;;;18.40;99.90;;;;;;5036531;28;20491;-67
2022/06/06 06:55:11;;;;;;;6.30;5.60;;;18.50;99.90;;;;;;5040188;28;20566;-67
2022/06/06 06:58:04;;;;;;;6.80;5.90;;;18.70;99.90;;;;;;5026703;28;20484;-66
2022/06/06 07:00:38;;;;;;;7.30;6.20;;;19.20;99.90;;;;;;5031552;28;20467;-67
2022/06/06 07:09:19;;;;;;;6.90;6.27;;;18.50;99.90;;;;;;5025749;28;20506;-65
2022/06/06 07:12:06;;;;;;;8.20;6.00;;;18.90;99.90;;;;;;5036787;28;20601;-66
2022/06/06 07:14:56;;;;;;;7.33;5.63;;;18.70;99.90;;;;;;5038282;28;20844;-69
2022/06/06 07:17:25;;;;;;;5.73;5.23;;;18.70;99.90;;;;;;5034241;28;20896;-65
2022/06/06 07:20:02;;;;;;;5.50;4.83;;;18.50;99.90;;;;;;5020005;28;20534;-64
2022/06/06 07:22:59;;;;;;;5.10;4.43;;;18.40;99.90;;;;;;5028108;28;20459;-68
2022/06/06 07:25:26;;;;;;;4.93;4.53;;;18.30;99.90;;;;;;5031050;28;20467;-65
2022/06/06 07:27:53;;;;;;;5.90;4.63;;;18.40;99.90;;;;;;5034530;28;20523;-64
2022/06/06 07:30:26;;;;;;;5.63;4.57;;;18.20;99.90;;;;;;5019554;28;20479;-66
2022/06/06 07:33:08;;;;;;;4.50;3.97;;;18.20;99.90;;;;;;5018000;28;20492;-67
2022/06/06 07:35:42;;;;;;;5.80;4.53;;;18.60;99.90;;;;;;5014810;28;20479;-64
2022/06/06 07:38:22;;;;;;;4.93;4.40;;;18.80;99.90;;;;;;5033833;28;20463;-65
2022/06/06 07:41:02;;;;;;;5.13;3.77;;;19.40;99.90;;;;;;5035718;28;20470;-67
2022/06/06 07:43:44;;;;;;;4.90;4.10;;;19.90;99.90;;;;;;5018172;28;20467;-63
2022/06/06 07:46:20;;;;;;;4.57;3.30;;;20.50;99.90;;;;;;5020292;28;20892;-64
2022/06/06 07:49:00;;;;;;;3.50;3.20;;;20.70;99.90;;;;;;5018705;28;20522;-66
2022/06/06 07:51:37;;;;;;;4.50;3.83;;;21.10;99.90;;;;;;5029080;28;20757;-64
2022/06/06 07:54:15;;;;;;;4.50;4.10;;;20.20;99.90;;;;;;5034412;28;20801;-63
2022/06/06 07:56:59;;;;;;;4.10;3.70;;;20.00;99.90;;;;;;5038515;28;20470;-63
2022/06/06 07:59:46;;;;;;;3.73;3.33;;;20.30;99.90;;;;;;5032127;28;20464;-65
2022/06/06 08:02:51;;;;;;;3.60;2.83;;;20.40;99.90;;;;;;5033826;28;20467;-67
2022/06/06 08:05:47;;;;;;;4.20;3.80;;;20.50;99.90;;;;;;5010791;28;20483;-62
2022/06/06 08:08:24;;;;;;;3.57;3.27;;;21.20;99.90;;;;;;5017429;28;20483;-64
2022/06/06 08:10:51;;;;;;;4.03;2.77;;;21.00;99.90;;;;;;5029572;28;20470;-63
2022/06/06 08:13:39;;;;;;;3.50;3.13;;;20.50;99.90;;;;;;5037270;28;20497;-63
2022/06/06 08:16:21;;;;;;;4.93;2.83;;;20.60;99.90;;;;;;5015011;28;20467;-63
2022/06/06 08:19:10;;;;;;;3.87;3.43;;;20.60;99.90;;;;;;5031835;28;20467;-63
2022/06/06 08:21:40;;;;;;;5.20;3.20;;;20.30;99.90;;;;;;5018330;28;20551;-63
2022/06/06 08:24:17;;;;;;;3.83;3.53;;;20.20;99.90;;;;;;5018471;28;20456;-63
2022/06/06 08:26:51;;;;;;;3.27;2.97;;;20.00;99.90;;;;;;5018443;28;20456;-64
2022/06/06 08:29:22;;;;;;;3.47;3.17;;;20.30;99.90;;;;;;5033696;28;20438;-65
2022/06/06 08:31:55;;;;;;;4.20;3.80;;;21.00;99.90;;;;;;5024889;28;20774;-63
2022/06/06 08:34:22;;;;;;;4.53;3.37;;;21.80;99.90;;;;;;5020760;28;20586;-63
2022/06/06 08:37:22;;;;;;;3.33;2.80;;;22.10;99.90;;;;;;5032304;28;20958;-62
2022/06/06 08:40:04;;;;;;;3.90;2.73;;;22.40;99.90;;;;;;5020334;28;20460;-62
2022/06/06 08:42:43;;;;;;;3.47;2.50;;;22.60;99.90;;;;;;5024168;28;20471;-62
2022/06/06 08:45:23;;;;;;;3.77;2.83;;;22.90;99.90;;;;;;5037822;28;20880;-61
2022/06/06 08:48:07;;;;;;;4.17;2.73;;;23.00;99.90;;;;;;5010872;28;20494;-61
2022/06/06 08:50:59;;;;;;;3.23;2.93;;;23.10;99.90;;;;;;5037522;28;20913;-62
2022/06/06 08:54:08;;;;;;;2.23;2.03;;;23.00;99.90;;;;;;5031134;28;21125;-60
2022/06/06 08:56:55;;;;;;;3.03;2.83;;;22.70;99.90;;;;;;4950878;28;20803;-61
2022/06/06 09:00:06;;;;;;;3.47;3.17;;;22.60;99.90;;;;;;5031858;28;20466;-62
2022/06/06 09:03:14;;;;;;;2.80;2.60;;;22.50;99.90;;;;;;5036815;28;20586;-59
2022/06/06 09:06:22;;;;;;;3.30;2.80;;;22.50;99.90;;;;;;5032312;28;20472;-61
2022/06/06 09:09:32;;;;;;;3.07;2.87;;;22.30;99.90;;;;;;5017111;28;20900;-61
2022/06/06 09:12:34;;;;;;;3.27;2.97;;;22.30;99.90;;;;;;5013638;28;20473;-62
2022/06/06 09:15:32;;;;;;;2.60;2.20;;;21.70;99.90;;;;;;5004924;28;20490;-61
2022/06/06 09:18:33;;;;;;;3.13;2.60;;;21.30;99.90;;;;;;5003261;28;20471;-61
2022/06/06 09:21:30;;;;;;;2.80;2.50;;;21.40;99.90;;;;;;5035766;28;20463;-59
2022/06/06 09:24:30;;;;;;;2.40;2.20;;;21.90;99.90;;;;;;5026058;28;20741;-60
2022/06/06 09:27:20;;;;;;;3.07;2.77;;;22.30;99.90;;;;;;5037088;28;20466;-61
2022/06/06 09:30:10;;;;;;;3.00;2.37;;;22.20;99.90;;;;;;5017639;28;20758;-62
2022/06/06 09:33:11;;;;;;;2.83;2.40;;;21.30;99.90;;;;;;5035601;28;20485;-60
2022/06/06 09:35:46;;;;;;;3.00;2.10;;;20.90;99.90;;;;;;4997737;28;20712;-62
2022/06/06 09:38:19;;;;;;;2.80;2.27;;;21.30;99.90;;;;;;4990850;28;20469;-60
2022/06/06 09:40:58;;;;;;;3.13;2.60;;;21.10;99.90;;;;;;4968278;28;20465;-61
2022/06/06 09:43:40;;;;;;;3.00;2.80;;;21.60;99.90;;;;;;4961598;28;20930;-59
2022/06/06 09:46:42;;;;;;;2.60;2.40;;;21.60;99.90;;;;;;4997214;28;20465;-57
2022/06/06 09:49:47;;;;;;;3.13;2.87;;;21.60;99.90;;;;;;4994919;28;20881;-60
2022/06/06 09:52:44;;;;;;;2.73;2.53;;;21.60;99.90;;;;;;4996468;28;20750;-60
2022/06/06 09:59:13;;;;;;;2.60;2.40;;;20.60;99.90;;;;;;4944460;28;20553;-60
2022/06/06 10:02:08;;;;;;;3.57;2.30;;;20.70;99.90;;;;;;4988361;28;20494;-60
2022/06/06 10:05:22;;;;;;;3.63;2.43;;;20.20;99.90;;;;;;4982102;28;20488;-63
2022/06/06 10:08:35;;;;;;;3.40;2.77;;;19.50;99.90;;;;;;4964576;28;20488;-61
2022/06/06 10:11:31;;;;;;;3.00;2.70;;;19.20;99.90;;;;;;4975445;28;20587;-61
2022/06/06 10:14:35;;;;;;;2.90;2.40;;;19.60;99.90;;;;;;4976588;28;20498;-60
2022/06/06 10:17:40;;;;;;;3.30;2.53;;;19.60;99.90;;;;;;4997127;28;20932;-60
2022/06/06 10:20:26;;;;;;;2.23;2.03;;;19.30;99.90;;;;;;4992847;28;20555;-61
2022/06/06 10:23:31;;;;;;;3.17;2.07;;;19.50;99.90;;;;;;4996482;28;20468;-60
2022/06/06 10:26:21;;;;;;;4.47;2.30;;;19.60;99.90;;;;;;4989190;28;20825;-60
2022/06/06 10:29:14;;;;;;;2.63;1.90;;;19.60;99.90;;;;;;4993546;28;20472;-61
2022/06/06 10:32:18;;;;;;;3.10;2.80;;;19.50;99.90;;;;;;4986784;28;20468;-62
2022/06/06 10:35:09;;;;;;;3.13;2.10;;;19.60;99.90;;;;;;5028066;28;20498;-59
2022/06/06 10:37:56;;;;;;;2.70;2.50;;;20.50;99.90;;;;;;5036263;28;20455;-60
2022/06/06 10:40:55;;;;;;;3.17;2.87;;;20.60;99.90;;;;;;5035139;28;20463;-61
2022/06/06 10:43:47;;;;;;;3.17;2.97;;;20.30;99.90;;;;;;5029557;28;20463;-60
2022/06/06 10:46:24;;;;;;;5.50;2.47;;;20.20;99.90;;;;;;5023271;28;20476;-60
2022/06/06 10:49:23;;;;;;;2.60;2.40;;;19.70;99.90;;;;;;5017826;28;20847;-60
2022/06/06 10:52:32;;;;;;;2.83;2.40;;;19.70;99.90;;;;;;5024223;28;20467;-60
2022/06/06 10:55:32;;;;;;;2.80;2.60;;;19.50;99.90;;;;;;5035829;28;20491;-61
2022/06/06 10:58:30;;;;;;;4.70;2.50;;;19.80;99.90;;;;;;5028966;28;20530;-62
2022/06/06 11:01:56;;;;;;;2.80;2.60;;;20.20;99.90;;;;;;5021958;28;20559;-60
2022/06/06 11:04:51;;;;;;;1.90;1.80;;;20.20;99.90;;;;;;4954733;28;20853;-61
2022/06/06 11:07:53;;;;;;;2.23;1.87;;;20.30;99.90;;;;;;4959797;28;20455;-62
2022/06/06 11:11:07;;;;;;;2.73;2.40;;;20.70;99.90;;;;;;5018027;28;20466;-62
2022/06/06 11:13:47;;;;;;;2.17;1.97;;;21.50;99.90;;;;;;5018130;28;20491;-62
2022/06/06 11:17:05;;;;;;;3.07;2.50;;;22.50;99.90;;;;;;5018862;28;20459;-61
2022/06/06 11:20:08;;;;;;;2.63;2.23;;;22.00;99.90;;;;;;5016171;28;20471;-61
2022/06/06 11:22:46;;;;;;;2.17;1.90;;;22.30;99.90;;;;;;5016208;28;20525;-63
2022/06/06 11:25:15;;;;;;;2.83;2.20;;;21.90;99.90;;;;;;5019982;28;20467;-62
2022/06/06 11:28:19;;;;;;;3.13;2.20;;;21.40;99.90;;;;;;5037319;28;20459;-62
2022/06/06 11:31:31;;;;;;;2.50;2.30;;;21.40;99.90;;;;;;5018269;28;20467;-62
2022/06/06 11:34:57;;;;;;;3.40;2.00;;;21.90;99.90;;;;;;5038390;28;20499;-61
2022/06/06 11:37:57;;;;;;;4.03;2.40;;;22.30;99.90;;;;;;5039163;28;20455;-63
2022/06/06 11:41:05;;;;;;;2.20;2.00;;;22.70;99.90;;;;;;5021742;28;20466;-63
2022/06/06 11:44:08;;;;;;;1.90;1.80;;;22.50;99.90;;;;;;5010982;28;20474;-62
2022/06/06 11:47:33;;;;;;;3.20;2.33;;;22.80;99.90;;;;;;5016853;28;20460;-60
2022/06/06 11:50:42;;;;;;;2.67;1.67;;;23.40;99.90;;;;;;4953451;28;20458;-63
2022/06/06 11:53:47;;;;;;;2.10;2.00;;;24.50;99.90;;;;;;5001234;28;20459;-63
2022/06/06 11:56:43;;;;;;;2.50;2.30;;;24.50;99.90;;;;;;5016183;28;20789;-63
2022/06/06 11:59:42;;;;;;;2.70;2.50;;;24.60;99.90;;;;;;5018104;28;20463;-63
2022/06/06 12:02:51;;;;;;;2.23;2.13;;;24.50;99.90;;;;;;5010298;28;20519;-62
2022/06/06 12:05:52;;;;;;;2.20;2.00;;;24.60;99.90;;;;;;5014763;28;20897;-60
2022/06/06 12:08:44;;;;;;;2.40;2.20;;;24.50;99.90;;;;;;5030009;28;20517;-60
2022/06/06 12:11:51;;;;;;;2.30;2.20;;;24.60;99.90;;;;;;5031070;28;20514;-61
2022/06/06 12:14:39;;;;;;;2.50;2.30;;;23.40;99.90;;;;;;5001290;28;20502;-60
2022/06/06 12:17:16;;;;;;;3.53;2.60;;;22.50;99.90;;;;;;5020534;28;20468;-59
2022/06/06 12:20:04;;;;;;;2.43;2.23;;;21.40;99.90;;;;;;5019468;28;20468;-58
2022/06/06 12:23:06;;;;;;;4.43;1.97;;;21.00;99.90;;;;;;5017268;28;20495;-58
2022/06/06 12:25:58;;;;;;;3.33;2.30;;;20.80;99.90;;;;;;5017125;28;20471;-60
2022/06/06 12:28:55;;;;;;;3.13;2.80;;;20.50;99.90;;;;;;5019374;28;20460;-59
2022/06/06 12:31:54;;;;;;;2.83;2.47;;;20.60;99.90;;;;;;5016040;28;20575;-60
2022/06/06 12:34:31;;;;;;;4.17;3.23;;;21.50;99.90;;;;;;5014135;28;20507;-62
2022/06/06 12:37:08;;;;;;;3.13;2.57;;;22.90;99.90;;;;;;5018342;28;20832;-62
2022/06/06 12:39:51;;;;;;;2.70;2.50;;;23.70;99.90;;;;;;5017016;28;20460;-61
2022/06/06 12:42:38;;;;;;;3.00;2.70;;;23.60;99.90;;;;;;5019085;28;20562;-60
2022/06/06 12:45:58;;;;;;;3.30;2.40;;;23.10;99.90;;;;;;5014256;28;20751;-60
2022/06/06 12:48:57;;;;;;;4.37;2.23;;;23.90;99.90;;;;;;4969180;28;20485;-62
2022/06/06 12:51:37;;;;;;;3.70;2.53;;;24.40;99.90;;;;;;5003344;28;20908;-60
2022/06/06 12:54:30;;;;;;;4.60;2.70;;;24.70;99.90;;;;;;5012776;28;20494;-63
2022/06/06 12:57:10;;;;;;;3.53;2.57;;;24.80;99.90;;;;;;5011021;28;20911;-64
2022/06/06 12:59:53;;;;;;;2.63;2.43;;;24.80;99.90;;;;;;5012869;28;20475;-59
2022/06/06 13:02:36;;;;;;;2.30;2.10;;;24.20;99.90;;;;;;5022335;28;21007;-63
2022/06/06 13:05:23;;;;;;;2.40;2.20;;;23.70;99.90;;;;;;5017834;28;20914;-61
2022/06/06 13:08:24;;;;;;;7.73;2.43;;;23.20;99.90;;;;;;5015422;28;20992;-62
2022/06/06 13:11:09;;;;;;;2.40;2.20;;;23.10;99.90;;;;;;5005202;28;20568;-61
2022/06/06 13:14:01;;;;;;;1.83;1.73;;;23.50;99.90;;;;;;5019186;28;20559;-61
2022/06/06 13:16:54;;;;;;;2.97;2.70;;;23.10;99.90;;;;;;5013518;28;20846;-60
2022/06/06 13:19:38;;;;;;;2.90;1.63;;;23.50;99.90;;;;;;5013300;28;20477;-59
2022/06/06 13:22:20;;;;;;;2.80;2.30;;;23.80;99.90;;;;;;5018200;28;20460;-60
2022/06/06 13:25:06;;;;;;;3.97;2.07;;;24.00;99.90;;;;;;5011779;28;20443;-62
2022/06/06 13:27:53;;;;;;;2.30;2.10;;;24.10;99.90;;;;;;5015877;28;20534;-61
2022/06/06 13:30:23;;;;;;;3.43;2.27;;;24.20;99.90;;;;;;5013671;28;20534;-59
2022/06/06 13:32:59;;;;;;;3.43;2.13;;;23.90;99.90;;;;;;5017542;28;20928;-60
2022/06/06 13:35:40;;;;;;;2.90;2.60;;;23.80;99.90;;;;;;5013093;28;20503;-60
2022/06/06 13:38:25;;;;;;;5.20;2.43;;;23.60;99.90;;;;;;5013881;28;20905;-57
2022/06/06 13:41:18;;;;;;;3.77;2.93;;;23.30;99.90;;;;;;5013662;28;20486;-59
2022/06/06 13:43:58;;;;;;;3.17;2.00;;;23.30;99.90;;;;;;5013432;28;21061;-59
2022/06/06 13:46:46;;;;;;;3.57;2.37;;;22.50;99.90;;;;;;5014825;28;20526;-60
2022/06/06 13:49:28;;;;;;;4.80;2.30;;;22.50;99.90;;;;;;5015260;28;20472;-62
2022/06/06 13:52:14;;;;;;;2.87;2.57;;;23.20;99.90;;;;;;5015427;28;20774;-63
2022/06/06 13:54:44;;;;;;;3.47;2.63;;;23.90;99.90;;;;;;5011849;28;20590;-59
2022/06/06 13:57:24;;;;;;;2.70;2.13;;;23.80;99.90;;;;;;5010499;28;20472;-59
2022/06/06 14:00:14;;;;;;;2.40;2.20;;;23.10;99.90;;;;;;5011193;28;20561;-59
2022/06/06 14:03:15;;;;;;;4.17;2.37;;;23.20;99.90;;;;;;5014784;28;20479;-61
2022/06/06 14:06:19;;;;;;;3.40;2.20;;;23.70;99.90;;;;;;5013246;28;20471;-62
2022/06/06 14:08:54;;;;;;;3.20;2.17;;;24.00;99.90;;;;;;4997421;28;20828;-60
2022/06/06 14:12:06;;;;;;;5.10;2.73;;;24.10;99.90;;;;;;5014831;28;20463;-61
2022/06/06 14:14:36;;;;;;;2.43;2.03;;;23.90;99.90;;;;;;5011666;28;20928;-63
2022/06/06 14:17:06;;;;;;;2.40;2.20;;;23.90;99.90;;;;;;5013465;28;20472;-62
2022/06/06 14:19:52;;;;;;;5.00;2.23;;;23.60;99.90;;;;;;5013552;28;20472;-62
2022/06/06 14:22:37;;;;;;;2.70;2.50;;;23.50;99.90;;;;;;5021983;28;20468;-60